Time;durP1;ratioP1;P1;durP2;ratioP2;P2;SDS_P1;SDS_P2;PMS_P1;PMS_P2;Temp;Humidity;BMP_temperature;BMP_pressure;BME280_temperature;BME280_humidity;BME280_pressure;Samples;Min_cycle;Max_cycle;Signal;HPM_P1;HPM_P2
2022/08/31 00:06:41;;;;;;;5.35;3.00;;;;;;;;;;6276546;28;20051;-78
2022/08/31 00:10:27;;;;;;;5.50;3.33;;;;;;;;;;6275028;28;20047;-79
2022/08/31 00:14:05;;;;;;;4.47;3.00;;;;;;;;;;6254536;28;20053;-78
2022/08/31 00:17:19;;;;;;;3.53;2.88;;;;;;;;;;6262726;28;20125;-79
2022/08/31 00:20:29;;;;;;;4.55;3.15;;;;;;;;;;6243680;28;20040;-78
2022/08/31 00:23:43;;;;;;;5.68;3.70;;;;;;;;;;6238835;28;20049;-79
2022/08/31 00:26:49;;;;;;;3.95;3.50;;;;;;;;;;6272531;28;20511;-79
2022/08/31 00:29:59;;;;;;;4.18;3.45;;;;;;;;;;6266576;28;20052;-79
2022/08/31 00:33:12;;;;;;;4.93;3.50;;;;;;;;;;6252705;28;20044;-78
2022/08/31 00:36:21;;;;;;;3.78;3.20;;;;;;;;;;6220334;28;20040;-79
2022/08/31 00:39:23;;;;;;;4.43;3.55;;;;;;;;;;6270341;28;20077;-79
2022/08/31 00:42:25;;;;;;;5.70;3.47;;;;;;;;;;6286725;28;20049;-78
2022/08/31 00:45:27;;;;;;;3.83;3.25;;;;;;;;;;6296694;28;20671;-79
2022/08/31 00:48:29;;;;;;;4.13;3.50;;;;;;;;;;6277937;28;20051;-79
2022/08/31 00:51:38;;;;;;;4.82;3.97;;;;;;;;;;6276279;28;20037;-79
2022/08/31 00:54:47;;;;;;;5.38;4.03;;;;;;;;;;6286862;28;20056;-78
2022/08/31 00:57:53;;;;;;;4.95;3.60;;;;;;;;;;6283998;28;20052;-78
2022/08/31 01:00:57;;;;;;;4.32;3.38;;;;;;;;;;6279317;28;20101;-79
2022/08/31 01:03:59;;;;;;;7.15;4.00;;;;;;;;;;6283947;28;20185;-79
2022/08/31 01:07:03;;;;;;;5.68;3.58;;;;;;;;;;6280711;28;20509;-79
2022/08/31 01:10:07;;;;;;;5.07;3.65;;;;;;;;;;6284394;28;20060;-78
2022/08/31 01:13:11;;;;;;;4.15;3.35;;;;;;;;;;6282153;28;20048;-79
2022/08/31 01:16:27;;;;;;;4.18;3.67;;;;;;;;;;6280286;28;20048;-79
2022/08/31 01:19:49;;;;;;;5.35;3.60;;;;;;;;;;6296323;28;20049;-79
2022/08/31 01:22:50;;;;;;;4.45;3.40;;;;;;;;;;6252679;28;20041;-78
2022/08/31 01:25:55;;;;;;;5.80;3.63;;;;;;;;;;6284610;28;20052;-79
2022/08/31 01:29:01;;;;;;;4.97;3.63;;;;;;;;;;6286438;28;20079;-79
2022/08/31 01:32:04;;;;;;;5.60;3.70;;;;;;;;;;6289386;28;20059;-78
2022/08/31 01:35:06;;;;;;;6.53;3.55;;;;;;;;;;6292699;28;20054;-77
2022/08/31 01:38:12;;;;;;;4.53;3.70;;;;;;;;;;6306852;28;20573;-79
2022/08/31 01:41:14;;;;;;;4.73;3.73;;;;;;;;;;6310540;28;20063;-79
2022/08/31 01:44:18;;;;;;;5.00;3.38;;;;;;;;;;6289283;28;20047;-79
2022/08/31 01:47:20;;;;;;;4.13;3.67;;;;;;;;;;6282976;28;20051;-77
2022/08/31 01:50:25;;;;;;;4.38;3.50;;;;;;;;;;6287728;28;20040;-79
2022/08/31 01:53:27;;;;;;;5.32;4.40;;;;;;;;;;6283209;28;20037;-79
2022/08/31 01:56:33;;;;;;;5.40;3.65;;;;;;;;;;6283116;28;20040;-78
2022/08/31 01:59:37;;;;;;;5.38;3.90;;;;;;;;;;6280431;28;20407;-78
2022/08/31 02:02:51;;;;;;;5.72;3.50;;;;;;;;;;6288117;28;20076;-79
2022/08/31 02:05:53;;;;;;;8.43;3.65;;;;;;;;;;6280509;28;20518;-79
2022/08/31 02:08:53;;;;;;;5.07;3.90;;;;;;;;;;6287647;28;20044;-79
2022/08/31 02:11:55;;;;;;;7.57;3.63;;;;;;;;;;6282655;28;20044;-78
2022/08/31 02:14:57;;;;;;;5.97;4.05;;;;;;;;;;6284359;28;20475;-77
2022/08/31 02:17:59;;;;;;;4.68;3.92;;;;;;;;;;6281727;28;20040;-78
2022/08/31 02:21:03;;;;;;;5.85;4.00;;;;;;;;;;6282229;28;20178;-76
2022/08/31 02:24:06;;;;;;;5.10;3.50;;;;;;;;;;6281208;28;20041;-77
2022/08/31 02:27:08;;;;;;;7.97;3.80;;;;;;;;;;6279584;28;20814;-79
2022/08/31 02:30:15;;;;;;;4.25;3.75;;;;;;;;;;6283425;28;20048;-77
2022/08/31 02:33:17;;;;;;;5.32;3.60;;;;;;;;;;6266765;28;20032;-77
2022/08/31 02:36:19;;;;;;;4.63;3.60;;;;;;;;;;6278954;28;20526;-77
2022/08/31 02:39:21;;;;;;;7.18;3.70;;;;;;;;;;6277478;28;20041;-77
2022/08/31 02:42:23;;;;;;;4.80;4.17;;;;;;;;;;6283004;28;20127;-78
2022/08/31 02:45:25;;;;;;;6.20;3.75;;;;;;;;;;6271070;28;20422;-78
2022/08/31 02:48:34;;;;;;;5.53;3.30;;;;;;;;;;6291587;28;20044;-78
2022/08/31 02:51:40;;;;;;;4.10;3.70;;;;;;;;;;6272256;28;20054;-78
2022/08/31 02:54:41;;;;;;;5.28;3.90;;;;;;;;;;6286891;28;20033;-78
2022/08/31 02:57:43;;;;;;;4.82;3.78;;;;;;;;;;6283019;28;20729;-79
2022/08/31 03:00:46;;;;;;;5.43;3.75;;;;;;;;;;6280400;28;20099;-78
2022/08/31 03:03:50;;;;;;;5.85;3.80;;;;;;;;;;6283941;28;20049;-79
2022/08/31 03:06:51;;;;;;;5.65;3.80;;;;;;;;;;6277181;28;20036;-79
2022/08/31 03:09:53;;;;;;;6.00;4.03;;;;;;;;;;6281578;28;20514;-79
2022/08/31 03:12:55;;;;;;;4.25;3.70;;;;;;;;;;6265638;28;20040;-79
2022/08/31 03:15:57;;;;;;;4.63;4.00;;;;;;;;;;6279310;28;20052;-79
2022/08/31 03:18:59;;;;;;;6.00;3.72;;;;;;;;;;6279589;28;20068;-78
2022/08/31 03:22:02;;;;;;;5.25;3.80;;;;;;;;;;6288203;28;20063;-79
2022/08/31 03:25:04;;;;;;;6.38;4.10;;;;;;;;;;6268293;28;20530;-79
2022/08/31 03:28:06;;;;;;;;;;;;;;;;;;6285352;28;20059;-78
2022/08/31 03:31:11;;;;;;;5.78;4.18;;;;;;;;;;6307402;28;20003;-79
2022/08/31 03:34:13;;;;;;;5.50;3.90;;;;;;;;;;6276845;28;20044;-79
2022/08/31 03:37:17;;;;;;;4.75;3.72;;;;;;;;;;6279518;28;20235;-79
2022/08/31 03:40:20;;;;;;;9.17;3.97;;;;;;;;;;6282041;28;20091;-79
2022/08/31 03:43:21;;;;;;;6.63;3.97;;;;;;;;;;6281255;28;20052;-79
2022/08/31 03:46:24;;;;;;;6.40;3.95;;;;;;;;;;6300618;28;20064;-79
2022/08/31 03:49:26;;;;;;;8.73;3.97;;;;;;;;;;6280794;28;20045;-80
2022/08/31 03:52:41;;;;;;;7.93;3.85;;;;;;;;;;6269468;28;20129;-78
2022/08/31 03:55:48;;;;;;;10.45;4.07;;;;;;;;;;6282944;28;20052;-77
2022/08/31 03:58:50;;;;;;;11.90;4.33;;;;;;;;;;6283372;28;20058;-78
2022/08/31 04:02:18;;;;;;;5.55;3.70;;;;;;;;;;6285999;28;20051;-79
2022/08/31 04:05:42;;;;;;;5.55;3.58;;;;;;;;;;6269926;28;20049;-77
2022/08/31 04:08:47;;;;;;;4.15;3.20;;;;;;;;;;6277712;28;20147;-77
2022/08/31 04:12:13;;;;;;;5.03;3.30;;;;;;;;;;6262606;28;20097;-77
2022/08/31 04:15:50;;;;;;;7.72;3.60;;;;;;;;;;6206589;28;20064;-79
2022/08/31 04:19:14;;;;;;;4.82;3.33;;;;;;;;;;6273919;28;20502;-77
2022/08/31 04:22:36;;;;;;;6.70;3.25;;;;;;;;;;6272108;28;20055;-77
2022/08/31 04:25:54;;;;;;;4.53;3.53;;;;;;;;;;6274078;28;20117;-79
2022/08/31 04:28:56;;;;;;;4.67;3.73;;;;;;;;;;6272751;28;20048;-78
2022/08/31 04:31:59;;;;;;;6.88;3.67;;;;;;;;;;6285779;28;20041;-79
2022/08/31 04:35:00;;;;;;;5.10;3.92;;;;;;;;;;6264871;28;20716;-79
2022/08/31 04:38:02;;;;;;;6.88;4.60;;;;;;;;;;6263882;28;20560;-78
2022/08/31 04:41:10;;;;;;;6.13;4.15;;;;;;;;;;6274307;28;20562;-81
2022/08/31 04:44:13;;;;;;;5.95;4.20;;;;;;;;;;6265112;28;20040;-79
2022/08/31 04:47:21;;;;;;;6.38;4.20;;;;;;;;;;6285062;28;20048;-78
2022/08/31 04:50:24;;;;;;;8.77;4.75;;;;;;;;;;6269079;28;20045;-78
2022/08/31 04:53:41;;;;;;;7.00;4.90;;;;;;;;;;6268991;28;20048;-77
2022/08/31 04:56:44;;;;;;;5.97;4.13;;;;;;;;;;6274311;28;20045;-77
2022/08/31 04:59:54;;;;;;;6.32;4.40;;;;;;;;;;6272387;28;20048;-78
2022/08/31 05:03:14;;;;;;;6.18;4.15;;;;;;;;;;6281178;28;20115;-77
2022/08/31 05:06:20;;;;;;;7.13;4.32;;;;;;;;;;6267522;28;20530;-77
2022/08/31 05:09:22;;;;;;;7.60;4.82;;;;;;;;;;6264424;28;20459;-77
2022/08/31 05:12:25;;;;;;;5.30;4.35;;;;;;;;;;6268828;28;20050;-77
2022/08/31 05:15:27;;;;;;;6.88;4.50;;;;;;;;;;6281630;28;20452;-77
2022/08/31 05:18:29;;;;;;;5.90;4.60;;;;;;;;;;6269776;28;20521;-77
2022/08/31 05:21:36;;;;;;;8.30;4.93;;;;;;;;;;6289611;28;20554;-77
2022/08/31 05:24:37;;;;;;;5.82;4.07;;;;;;;;;;6274961;28;20052;-77
2022/08/31 05:27:40;;;;;;;6.97;4.20;;;;;;;;;;6277859;28;20041;-77
2022/08/31 05:30:43;;;;;;;5.07;4.45;;;;;;;;;;6281614;28;20036;-77
2022/08/31 05:33:57;;;;;;;4.82;4.07;;;;;;;;;;6273008;28;20041;-77
2022/08/31 05:37:08;;;;;;;7.07;4.30;;;;;;;;;;6256115;28;20210;-77
2022/08/31 05:40:11;;;;;;;5.38;4.22;;;;;;;;;;6276237;28;20052;-77
2022/08/31 05:43:13;;;;;;;5.50;3.75;;;;;;;;;;6253980;27;20044;-76
2022/08/31 05:46:15;;;;;;;4.80;3.93;;;;;;;;;;6242164;28;20759;-76
2022/08/31 05:49:18;;;;;;;5.13;4.22;;;;;;;;;;6276386;28;20050;-76
2022/08/31 05:52:20;;;;;;;8.02;4.28;;;;;;;;;;6274423;28;20048;-76
2022/08/31 05:55:27;;;;;;;6.03;4.03;;;;;;;;;;6274689;28;20182;-76
2022/08/31 05:58:30;;;;;;;6.95;4.22;;;;;;;;;;6269192;28;20160;-76
2022/08/31 06:01:34;;;;;;;5.25;4.40;;;;;;;;;;6272740;28;20037;-76
2022/08/31 06:04:59;;;;;;;6.43;4.55;;;;;;;;;;6277900;28;20033;-76
2022/08/31 06:08:02;;;;;;;7.03;4.40;;;;;;;;;;6277264;28;20563;-76
2022/08/31 06:11:06;;;;;;;6.03;4.10;;;;;;;;;;6269931;28;20091;-76
2022/08/31 06:14:09;;;;;;;6.70;4.20;;;;;;;;;;6276077;28;20056;-76
2022/08/31 06:17:11;;;;;;;6.13;4.35;;;;;;;;;;6279880;28;20067;-76
2022/08/31 06:20:14;;;;;;;7.93;4.20;;;;;;;;;;6279676;28;20051;-77
2022/08/31 06:23:19;;;;;;;6.72;4.30;;;;;;;;;;6278556;28;20044;-76
2022/08/31 06:26:25;;;;;;;8.38;4.47;;;;;;;;;;6293602;28;20044;-75
2022/08/31 06:29:30;;;;;;;5.72;4.13;;;;;;;;;;6275109;28;20054;-75
2022/08/31 06:32:33;;;;;;;4.85;3.60;;;;;;;;;;6274298;28;20041;-75
2022/08/31 06:35:39;;;;;;;4.90;3.50;;;;;;;;;;6280474;28;20041;-77
2022/08/31 06:39:06;;;;;;;5.00;3.28;;;;;;;;;;6274102;28;20529;-77
2022/08/31 06:42:16;;;;;;;4.28;3.05;;;;;;;;;;6262002;28;20475;-77
2022/08/31 06:45:29;;;;;;;6.88;3.38;;;;;;;;;;6269403;28;20064;-77
2022/08/31 06:48:56;;;;;;;3.97;3.30;;;;;;;;;;6239211;28;20056;-77
2022/08/31 06:51:59;;;;;;;5.45;3.20;;;;;;;;;;6263051;28;20358;-78
2022/08/31 06:55:03;;;;;;;6.28;2.97;;;;;;;;;;6268956;28;20769;-78
2022/08/31 06:58:23;;;;;;;4.68;3.30;;;;;;;;;;6269604;28;20037;-78
2022/08/31 07:01:53;;;;;;;3.40;2.90;;;;;;;;;;6277587;28;20041;-78
2022/08/31 07:05:05;;;;;;;3.80;2.85;;;;;;;;;;6275450;28;20049;-77
2022/08/31 07:08:07;;;;;;;6.28;2.95;;;;;;;;;;6279821;28;20044;-77
2022/08/31 07:11:14;;;;;;;5.13;2.88;;;;;;;;;;6268725;28;20049;-77
2022/08/31 07:14:20;;;;;;;4.60;3.10;;;;;;;;;;6273545;28;20182;-77
2022/08/31 07:17:23;;;;;;;7.55;3.33;;;;;;;;;;6288793;28;20079;-78
2022/08/31 07:20:25;;;;;;;6.77;3.13;;;;;;;;;;6277717;28;20171;-78
2022/08/31 07:23:26;;;;;;;3.72;3.22;;;;;;;;;;6286001;28;20040;-78
2022/08/31 07:26:41;;;;;;;2.97;2.67;;;;;;;;;;6275950;28;20114;-78
2022/08/31 07:29:43;;;;;;;4.40;3.00;;;;;;;;;;6277583;28;20046;-78
2022/08/31 07:32:49;;;;;;;3.33;2.88;;;;;;;;;;6277349;28;20531;-78
2022/08/31 07:35:52;;;;;;;3.38;3.00;;;;;;;;;;6268807;28;20051;-78
2022/08/31 07:42:42;;;;;;;6.57;2.85;;;;;;;;;;6272686;28;20448;-78
2022/08/31 07:45:44;;;;;;;3.97;2.80;;;;;;;;;;6266704;28;20049;-78
2022/08/31 07:48:51;;;;;;;5.63;3.10;;;;;;;;;;6268561;28;20540;-78
2022/08/31 07:51:54;;;;;;;4.70;3.22;;;;;;;;;;6272512;28;20127;-78
2022/08/31 07:55:23;;;;;;;3.22;2.92;;;;;;;;;;6273323;28;20064;-78
2022/08/31 07:58:33;;;;;;;3.10;2.80;;;;;;;;;;6269805;28;20624;-77
2022/08/31 08:01:36;;;;;;;3.88;2.80;;;;;;;;;;6273769;28;20129;-78
2022/08/31 08:04:42;;;;;;;4.28;3.00;;;;;;;;;;6274215;28;20177;-78
2022/08/31 08:08:04;;;;;;;2.67;2.47;;;;;;;;;;6271501;28;20594;-77
2022/08/31 08:11:43;;;;;;;3.95;3.22;;;;;;;;;;6273129;28;20071;-78
2022/08/31 08:15:05;;;;;;;3.55;2.85;;;;;;;;;;6267927;28;20090;-78
2022/08/31 08:18:36;;;;;;;4.05;3.08;;;;;;;;;;6248523;28;20437;-78
2022/08/31 08:21:38;;;;;;;3.63;3.33;;;;;;;;;;6272614;28;20049;-77
2022/08/31 08:24:42;;;;;;;4.90;3.13;;;;;;;;;;6275562;28;20119;-78
2022/08/31 08:28:16;;;;;;;3.97;2.90;;;;;;;;;;6270700;28;20049;-78
2022/08/31 08:31:37;;;;;;;4.63;3.35;;;;;;;;;;6274953;28;20044;-78
2022/08/31 08:34:42;;;;;;;3.50;2.70;;;;;;;;;;6266151;28;20047;-77
2022/08/31 08:37:47;;;;;;;3.13;2.83;;;;;;;;;;6273997;28;20048;-77
2022/08/31 08:41:06;;;;;;;5.10;3.22;;;;;;;;;;6275868;28;20119;-77
2022/08/31 08:44:11;;;;;;;3.78;3.00;;;;;;;;;;6272433;28;20037;-76
2022/08/31 08:47:24;;;;;;;3.30;3.00;;;;;;;;;;6271125;28;20052;-76
2022/08/31 08:50:36;;;;;;;4.70;3.17;;;;;;;;;;6277001;28;20064;-76
2022/08/31 08:53:41;;;;;;;3.10;2.80;;;;;;;;;;6275833;28;20056;-76
2022/08/31 08:57:02;;;;;;;4.25;3.20;;;;;;;;;;6273423;28;20052;-76
2022/08/31 09:00:09;;;;;;;5.80;3.22;;;;;;;;;;6269907;28;20063;-76
2022/08/31 09:03:26;;;;;;;3.50;3.20;;;;;;;;;;6277663;28;20048;-78
2022/08/31 09:07:11;;;;;;;5.22;3.03;;;;;;;;;;6278482;28;20037;-78
2022/08/31 09:10:32;;;;;;;8.50;3.30;;;;;;;;;;6290768;28;20041;-78
2022/08/31 09:14:09;;;;;;;7.32;3.28;;;;;;;;;;6278417;28;20055;-77
2022/08/31 09:17:56;;;;;;;3.60;3.20;;;;;;;;;;6273084;28;20121;-77
2022/08/31 09:21:05;;;;;;;3.72;3.05;;;;;;;;;;6280136;28;20037;-78
2022/08/31 09:24:11;;;;;;;4.65;3.10;;;;;;;;;;6275518;28;20044;-78
2022/08/31 09:27:45;;;;;;;4.75;3.20;;;;;;;;;;6272373;28;20056;-78
2022/08/31 09:30:51;;;;;;;4.43;3.40;;;;;;;;;;6280200;28;20476;-78
2022/08/31 09:33:53;;;;;;;4.97;3.42;;;;;;;;;;6274840;28;20048;-78
2022/08/31 09:37:13;;;;;;;3.42;3.08;;;;;;;;;;6268703;28;20509;-78
2022/08/31 09:40:22;;;;;;;4.30;2.95;;;;;;;;;;6274926;28;20138;-78
2022/08/31 09:43:33;;;;;;;5.88;3.40;;;;;;;;;;6278771;28;20083;-78
2022/08/31 09:46:36;;;;;;;4.38;3.72;;;;;;;;;;6270941;28;20101;-77
2022/08/31 09:49:38;;;;;;;3.67;3.33;;;;;;;;;;6275673;28;20053;-78
2022/08/31 09:56:20;;;;;;;4.88;3.45;;;;;;;;;;6275237;28;20090;-77
2022/08/31 09:59:38;;;;;;;5.57;3.47;;;;;;;;;;6273301;28;20620;-78
2022/08/31 10:02:41;;;;;;;4.72;3.33;;;;;;;;;;6274642;28;20063;-77
2022/08/31 10:05:43;;;;;;;5.45;3.08;;;;;;;;;;6281218;28;20049;-77
2022/08/31 10:08:56;;;;;;;5.70;3.40;;;;;;;;;;6291950;28;20117;-78
2022/08/31 10:12:03;;;;;;;4.00;3.00;;;;;;;;;;6273532;28;20048;-78
2022/08/31 10:15:19;;;;;;;5.03;3.17;;;;;;;;;;6272730;28;20052;-78
2022/08/31 10:18:32;;;;;;;5.32;3.33;;;;;;;;;;6277387;28;20059;-78
2022/08/31 10:21:50;;;;;;;3.65;3.10;;;;;;;;;;6270543;28;20511;-78
2022/08/31 10:25:14;;;;;;;4.35;3.30;;;;;;;;;;6274308;28;20093;-78
2022/08/31 10:28:22;;;;;;;;;;;;;;;;;;6234684;28;1072068;-78
2022/08/31 10:31:37;;;;;;;4.25;3.40;;;;;;;;;;6277027;28;19931;-77
2022/08/31 10:38:20;;;;;;;5.53;3.30;;;;;;;;;;6274251;28;20056;-77
2022/08/31 10:41:27;;;;;;;5.38;3.40;;;;;;;;;;6276415;28;20045;-77
2022/08/31 10:44:55;;;;;;;3.53;3.08;;;;;;;;;;6270646;28;20044;-78
2022/08/31 10:47:58;;;;;;;4.85;3.47;;;;;;;;;;6269547;28;20403;-77
2022/08/31 10:51:18;;;;;;;5.85;3.60;;;;;;;;;;6274300;27;20068;-77
2022/08/31 10:54:38;;;;;;;3.58;3.28;;;;;;;;;;6276296;28;20085;-78
2022/08/31 10:58:00;;;;;;;4.30;3.55;;;;;;;;;;6268677;28;20144;-78
2022/08/31 11:01:16;;;;;;;4.10;3.55;;;;;;;;;;6272196;28;20071;-77
2022/08/31 11:04:25;;;;;;;5.97;3.40;;;;;;;;;;6279669;28;20078;-77
2022/08/31 11:07:56;;;;;;;3.85;3.45;;;;;;;;;;6274678;28;20049;-78
2022/08/31 11:11:01;;;;;;;3.80;3.40;;;;;;;;;;6276162;28;20043;-78
2022/08/31 11:14:29;;;;;;;5.82;3.30;;;;;;;;;;6278600;28;20048;-76
2022/08/31 11:17:36;;;;;;;3.50;3.20;;;;;;;;;;6274962;28;20506;-77
2022/08/31 11:21:28;;;;;;;4.25;3.03;;;;;;;;;;6279069;28;20056;-76
2022/08/31 11:24:38;;;;;;;5.32;3.40;;;;;;;;;;6191418;28;20056;-77
2022/08/31 11:27:43;;;;;;;4.88;3.22;;;;;;;;;;6276847;28;20419;-77
2022/08/31 11:30:47;;;;;;;3.65;3.35;;;;;;;;;;6276396;28;20045;-75
2022/08/31 11:33:59;;;;;;;5.05;3.60;;;;;;;;;;6277842;28;20502;-77
2022/08/31 11:37:53;;;;;;;5.90;3.60;;;;;;;;;;6269653;28;20053;-77
2022/08/31 11:40:59;;;;;;;4.70;3.70;;;;;;;;;;6275897;28;20486;-76
2022/08/31 11:44:03;;;;;;;4.55;3.47;;;;;;;;;;6271951;28;20400;-77
2022/08/31 11:47:08;;;;;;;3.60;3.25;;;;;;;;;;6271522;28;20052;-77
2022/08/31 11:50:37;;;;;;;5.10;3.63;;;;;;;;;;6266862;28;20078;-77
2022/08/31 11:53:43;;;;;;;5.20;3.50;;;;;;;;;;6273592;28;20137;-77
2022/08/31 11:56:46;;;;;;;4.30;3.50;;;;;;;;;;6275277;28;20060;-77
2022/08/31 11:59:49;;;;;;;4.22;3.50;;;;;;;;;;6270324;28;20044;-77
2022/08/31 12:03:04;;;;;;;3.92;3.50;;;;;;;;;;6270034;28;20055;-76
2022/08/31 12:06:10;;;;;;;5.25;3.50;;;;;;;;;;6274960;28;20551;-76
2022/08/31 12:09:14;;;;;;;4.40;3.10;;;;;;;;;;6269950;28;20110;-77
2022/08/31 12:12:48;;;;;;;3.88;3.47;;;;;;;;;;6266031;28;20060;-77
2022/08/31 12:16:02;;;;;;;3.58;3.28;;;;;;;;;;6288886;28;20053;-78
2022/08/31 12:27:09;;;;;;;3.83;3.53;;;;;;;;;;6271935;28;20039;-78
2022/08/31 12:30:24;;;;;;;3.78;3.38;;;;;;;;;;6280922;28;20045;-76
2022/08/31 12:33:27;;;;;;;4.15;3.40;;;;;;;;;;6258753;28;20067;-77
2022/08/31 12:36:32;;;;;;;3.33;3.03;;;;;;;;;;6267428;28;20502;-78
2022/08/31 12:39:34;;;;;;;6.90;3.38;;;;;;;;;;6278839;28;20047;-78
2022/08/31 12:43:01;;;;;;;4.03;3.13;;;;;;;;;;6275858;28;20518;-77
2022/08/31 12:46:08;;;;;;;4.55;3.25;;;;;;;;;;6272004;28;20122;-79
2022/08/31 12:49:20;;;;;;;3.45;3.13;;;;;;;;;;6284501;28;20082;-76
2022/08/31 12:52:38;;;;;;;4.25;3.20;;;;;;;;;;6261576;28;20383;-78
2022/08/31 12:55:48;;;;;;;3.58;3.20;;;;;;;;;;6271161;28;20137;-76
2022/08/31 12:59:14;;;;;;;3.50;3.20;;;;;;;;;;6271374;28;20102;-77
2022/08/31 13:02:19;;;;;;;4.68;2.72;;;;;;;;;;6282752;28;20533;-77
2022/08/31 13:05:34;;;;;;;3.33;2.80;;;;;;;;;;6279444;28;20040;-78
2022/08/31 13:08:41;;;;;;;5.28;3.00;;;;;;;;;;6272589;28;20518;-77
2022/08/31 13:11:51;;;;;;;4.90;3.50;;;;;;;;;;6276030;28;20082;-77
2022/08/31 13:14:52;;;;;;;3.60;3.30;;;;;;;;;;6262360;28;20575;-76
2022/08/31 13:17:55;;;;;;;4.87;3.60;;;;;;;;;;6267061;28;20045;-77
2022/08/31 13:21:08;;;;;;;3.95;3.50;;;;;;;;;;6269445;28;20475;-76
2022/08/31 13:24:11;;;;;;;2.50;2.30;;;;;;;;;;6270215;28;20052;-75
2022/08/31 13:27:24;;;;;;;3.65;2.40;;;;;;;;;;6271984;28;20048;-78
2022/08/31 13:30:26;;;;;;;2.47;2.28;;;;;;;;;;6276175;28;20041;-78
2022/08/31 13:33:31;;;;;;;6.95;3.13;;;;;;;;;;6270386;28;20060;-75
2022/08/31 13:36:41;;;;;;;3.13;2.67;;;;;;;;;;6269223;28;20061;-76
2022/08/31 13:39:45;;;;;;;3.15;2.85;;;;;;;;;;6266448;28;20132;-76
2022/08/31 13:42:53;;;;;;;3.70;2.28;;;;;;;;;;6270289;28;20041;-76
2022/08/31 13:45:59;;;;;;;2.45;2.25;;;;;;;;;;6273288;27;20048;-77
2022/08/31 13:49:06;;;;;;;2.65;2.20;;;;;;;;;;6270783;28;20510;-77
2022/08/31 13:52:36;;;;;;;2.90;2.60;;;;;;;;;;6278670;28;20044;-77
2022/08/31 13:55:43;;;;;;;5.15;3.45;;;;;;;;;;6269626;28;20055;-76
2022/08/31 13:58:45;;;;;;;3.90;3.50;;;;;;;;;;6292609;28;20091;-77
2022/08/31 14:01:52;;;;;;;4.63;3.75;;;;;;;;;;6262739;28;20048;-78
2022/08/31 14:05:04;;;;;;;4.07;3.30;;;;;;;;;;6279637;28;20052;-77
2022/08/31 14:08:08;;;;;;;3.30;3.00;;;;;;;;;;6272543;28;20052;-78
2022/08/31 14:11:13;;;;;;;4.68;3.33;;;;;;;;;;6277303;28;20044;-78
2022/08/31 14:14:14;;;;;;;4.65;3.40;;;;;;;;;;6277213;28;20406;-77
2022/08/31 14:17:25;;;;;;;5.35;4.15;;;;;;;;;;6281602;28;20044;-79
2022/08/31 14:20:44;;;;;;;3.88;3.58;;;;;;;;;;6280540;28;20043;-78
2022/08/31 14:24:09;;;;;;;4.40;3.60;;;;;;;;;;6284893;28;20418;-77
2022/08/31 14:27:12;;;;;;;3.70;3.35;;;;;;;;;;6277762;28;20044;-78
2022/08/31 14:30:13;;;;;;;4.03;3.55;;;;;;;;;;6279919;28;20086;-78
2022/08/31 14:33:16;;;;;;;3.70;3.33;;;;;;;;;;6275511;28;20039;-76
2022/08/31 14:36:18;;;;;;;;;;;;;;;;;;6278207;28;20091;-76
2022/08/31 14:39:23;;;;;;;3.75;3.35;;;;;;;;;;6280590;28;20551;-79
2022/08/31 14:42:35;;;;;;;4.65;3.40;;;;;;;;;;6278977;28;20049;-77
2022/08/31 14:45:37;;;;;;;;;;;;;;;;;;6283505;28;20526;-77
2022/08/31 14:48:41;;;;;;;4.53;3.63;;;;;;;;;;6279511;28;20299;-77
2022/08/31 14:51:43;;;;;;;3.70;3.40;;;;;;;;;;6277837;28;20065;-77
2022/08/31 14:54:46;;;;;;;6.10;4.00;;;;;;;;;;6278984;28;20178;-77
2022/08/31 14:57:54;;;;;;;5.07;3.67;;;;;;;;;;6277590;28;20088;-78
2022/08/31 15:00:59;;;;;;;4.25;3.33;;;;;;;;;;6270530;28;20067;-75
2022/08/31 15:04:03;;;;;;;5.05;3.70;;;;;;;;;;6280993;28;20048;-78
2022/08/31 15:07:05;;;;;;;5.18;3.50;;;;;;;;;;6275176;28;20066;-78
2022/08/31 15:10:11;;;;;;;4.32;3.90;;;;;;;;;;6281927;28;20513;-77
2022/08/31 15:13:15;;;;;;;5.50;3.88;;;;;;;;;;6275918;28;20131;-78
2022/08/31 15:16:17;;;;;;;4.10;3.70;;;;;;;;;;6269672;28;20048;-76
2022/08/31 15:19:21;;;;;;;4.23;3.83;;;;;;;;;;6270870;28;20136;-77
2022/08/31 15:22:25;;;;;;;5.07;3.60;;;;;;;;;;6276937;28;20123;-78
2022/08/31 15:25:27;;;;;;;4.68;3.67;;;;;;;;;;6267837;28;20033;-77
2022/08/31 15:28:32;;;;;;;5.55;3.90;;;;;;;;;;6272005;28;20056;-77
2022/08/31 15:31:34;;;;;;;4.38;3.85;;;;;;;;;;6267727;28;20045;-77
2022/08/31 15:34:36;;;;;;;5.20;4.20;;;;;;;;;;6272075;28;20045;-78
2022/08/31 15:37:40;;;;;;;4.93;4.00;;;;;;;;;;6274475;28;20533;-78
2022/08/31 15:40:41;;;;;;;5.03;4.10;;;;;;;;;;6271597;28;20142;-77
2022/08/31 15:43:43;;;;;;;7.83;4.30;;;;;;;;;;6273494;28;20056;-78
2022/08/31 15:50:06;;;;;;;4.82;4.43;;;;;;;;;;6273585;28;20133;-78
2022/08/31 15:53:10;;;;;;;5.25;4.00;;;;;;;;;;6268111;28;20151;-77
2022/08/31 15:56:12;;;;;;;4.18;3.88;;;;;;;;;;6274281;28;20059;-78
2022/08/31 15:59:14;;;;;;;4.90;4.03;;;;;;;;;;6267483;28;20040;-78
2022/08/31 16:02:19;;;;;;;4.20;3.80;;;;;;;;;;6266508;27;20056;-77
2022/08/31 16:05:26;;;;;;;4.18;3.88;;;;;;;;;;6291985;28;20479;-77
2022/08/31 16:08:28;;;;;;;4.28;3.80;;;;;;;;;;6278305;28;20154;-78
2022/08/31 16:11:34;;;;;;;4.38;3.97;;;;;;;;;;6277189;28;20409;-77
2022/08/31 16:14:40;;;;;;;4.68;3.63;;;;;;;;;;6271385;28;20502;-76
2022/08/31 16:17:42;;;;;;;3.60;3.30;;;;;;;;;;6278458;28;20052;-75
2022/08/31 16:20:49;;;;;;;3.60;3.30;;;;;;;;;;6266098;28;20045;-76
2022/08/31 16:23:59;;;;;;;3.50;3.17;;;;;;;;;;6276061;28;20044;-78
2022/08/31 16:27:07;;;;;;;3.20;2.97;;;;;;;;;;6278422;28;20045;-78
2022/08/31 16:30:11;;;;;;;3.38;2.90;;;;;;;;;;6280970;28;20511;-77
2022/08/31 16:33:12;;;;;;;3.55;2.97;;;;;;;;;;6276330;28;20518;-76
2022/08/31 16:36:17;;;;;;;3.40;2.60;;;;;;;;;;6274160;28;20048;-77
2022/08/31 16:39:19;;;;;;;3.28;2.60;;;;;;;;;;6280760;28;20046;-78
2022/08/31 16:42:21;;;;;;;3.38;2.70;;;;;;;;;;6277466;28;20048;-78
2022/08/31 16:45:22;;;;;;;3.00;2.75;;;;;;;;;;6274547;28;20044;-77
2022/08/31 16:51:45;;;;;;;2.78;2.50;;;;;;;;;;6284940;28;20060;-77
2022/08/31 16:54:50;;;;;;;3.42;2.75;;;;;;;;;;6269806;28;20045;-77
2022/08/31 16:57:52;;;;;;;3.55;2.78;;;;;;;;;;6274240;28;20036;-77
2022/08/31 17:00:54;;;;;;;2.97;2.65;;;;;;;;;;6282947;28;20040;-78
2022/08/31 17:03:58;;;;;;;3.05;2.70;;;;;;;;;;6285760;28;20037;-78
2022/08/31 17:07:00;;;;;;;4.38;3.20;;;;;;;;;;6279508;27;20040;-78
2022/08/31 17:10:05;;;;;;;3.00;2.80;;;;;;;;;;6284523;28;20452;-78
2022/08/31 17:13:07;;;;;;;3.30;2.70;;;;;;;;;;6269264;27;20483;-77
2022/08/31 17:16:09;;;;;;;3.00;2.70;;;;;;;;;;6276591;28;20503;-76
2022/08/31 17:19:13;;;;;;;2.93;2.27;;;;;;;;;;6284064;28;20442;-76
2022/08/31 17:22:18;;;;;;;3.65;2.80;;;;;;;;;;6280855;28;20040;-77
2022/08/31 17:25:26;;;;;;;3.25;3.00;;;;;;;;;;6271539;28;20133;-76
2022/08/31 17:28:28;;;;;;;3.65;2.95;;;;;;;;;;6273220;28;20047;-77
2022/08/31 17:31:42;;;;;;;3.67;2.60;;;;;;;;;;6275605;28;20048;-76
2022/08/31 17:34:50;;;;;;;2.83;2.63;;;;;;;;;;6288196;28;20059;-77
2022/08/31 17:37:52;;;;;;;2.67;2.35;;;;;;;;;;6294382;28;20048;-77
2022/08/31 17:41:03;;;;;;;3.00;2.28;;;;;;;;;;6273180;27;20051;-79
2022/08/31 17:44:06;;;;;;;3.72;2.53;;;;;;;;;;6272128;28;20149;-78
2022/08/31 17:47:09;;;;;;;2.88;2.38;;;;;;;;;;6271663;28;20125;-79
2022/08/31 17:50:12;;;;;;;3.78;2.42;;;;;;;;;;6274520;28;20041;-77
2022/08/31 17:53:14;;;;;;;2.80;2.45;;;;;;;;;;6269286;28;20041;-78
2022/08/31 17:56:16;;;;;;;2.58;2.25;;;;;;;;;;6267352;28;20124;-77
2022/08/31 17:59:27;;;;;;;4.80;2.30;;;;;;;;;;6273766;27;20067;-77
2022/08/31 18:02:33;;;;;;;2.45;2.25;;;;;;;;;;6265812;28;20067;-78
2022/08/31 18:05:35;;;;;;;3.53;2.40;;;;;;;;;;6273320;28;20182;-77
2022/08/31 18:08:41;;;;;;;3.72;2.50;;;;;;;;;;6270125;28;20045;-76
2022/08/31 18:11:47;;;;;;;3.58;2.28;;;;;;;;;;6271620;28;20195;-76
2022/08/31 18:14:49;;;;;;;3.08;2.10;;;;;;;;;;6278215;28;20441;-77
2022/08/31 18:17:53;;;;;;;4.50;2.47;;;;;;;;;;6278913;28;20052;-77
2022/08/31 18:20:56;;;;;;;2.97;2.30;;;;;;;;;;6276450;28;20418;-79
2022/08/31 18:23:58;;;;;;;2.33;2.00;;;;;;;;;;6275355;28;20052;-78
2022/08/31 18:27:05;;;;;;;3.00;2.53;;;;;;;;;;6276397;28;20046;-77
2022/08/31 18:30:12;;;;;;;2.45;2.25;;;;;;;;;;6282053;28;20090;-77
2022/08/31 18:33:14;;;;;;;3.22;2.33;;;;;;;;;;6278484;28;20048;-76
2022/08/31 18:36:21;;;;;;;2.63;2.42;;;;;;;;;;6278425;28;20049;-75
2022/08/31 18:39:27;;;;;;;2.75;2.50;;;;;;;;;;6278375;28;20040;-79
2022/08/31 18:46:09;;;;;;;2.88;2.60;;;;;;;;;;6305859;28;20074;-76
2022/08/31 18:49:11;;;;;;;3.10;2.60;;;;;;;;;;6289019;28;20048;-75
2022/08/31 18:52:21;;;;;;;2.65;2.22;;;;;;;;;;6281976;28;20426;-76
2022/08/31 18:55:23;;;;;;;3.55;2.70;;;;;;;;;;6274345;27;20060;-75
2022/08/31 18:58:25;;;;;;;3.03;2.60;;;;;;;;;;6279933;28;20055;-76
2022/08/31 19:01:28;;;;;;;3.35;3.00;;;;;;;;;;6287964;28;20120;-77
2022/08/31 19:04:36;;;;;;;5.75;3.33;;;;;;;;;;6282312;28;20037;-77
2022/08/31 19:07:40;;;;;;;6.32;3.17;;;;;;;;;;6283251;28;20136;-74
2022/08/31 19:10:41;;;;;;;6.05;2.90;;;;;;;;;;6289217;28;20049;-77
2022/08/31 19:13:45;;;;;;;3.72;3.00;;;;;;;;;;6285901;28;20055;-77
2022/08/31 19:16:52;;;;;;;5.25;2.95;;;;;;;;;;6274475;28;20063;-76
2022/08/31 19:20:03;;;;;;;6.15;2.72;;;;;;;;;;6276591;28;20584;-75
2022/08/31 19:23:04;;;;;;;;;;;;;;;;;;6279991;28;20040;-78
2022/08/31 19:26:28;;;;;;;2.85;2.65;;;;;;;;;;6277887;28;20015;-77